KILN

Wilmington Airpark

Wilmington, Ohio, USA
KILN 181729Z 1818/1918 07005KT P6SM BKN050 FM190000 06005KT P6SM SCT250 FM191500 11006KT P6SM FEW050 BKN250
Issued Valid From Valid To
Jul-18 @ 17:29 UTC
(5 hours ago)
Jul-18 @ 18:00 UTC
(5 hours ago)
Jul-19 @ 18:00 UTC
(in 19 hours)
Jul-18 @ 18:00 to Jul-19 @ 00:00
KILN 181729Z 1818/1918 07005KT P6SM BKN050
Wind Visibility Clouds
70° at 5 knots Greater than 6 miles
  • Broken at 5,000' AGL
From Jul-19 @ 00:00 to Jul-19 @ 15:00
FM190000 06005KT P6SM SCT250
Wind Visibility Clouds
60° at 5 knots Greater than 6 miles
  • Scattered at 25,000' AGL
From Jul-19 @ 15:00 to Jul-19 @ 18:00
FM191500 11006KT P6SM FEW050 BKN250
Wind Visibility Clouds
110° at 6 knots Greater than 6 miles
  • Few at 5,000' AGL
  • Broken at 25,000' AGL
KILN 181729Z 1818/1918 07005KT P6SM BKN050 FM190000 06005KT P6SM SCT250 FM191500 11006KT P6SM FEW050 BKN250
Issued Jul-18 @ 17:29 UTC
(5 hours ago)
Valid From Jul-18 @ 18:00 UTC
(5 hours ago)
Valid To Jul-19 @ 18:00 UTC
(in 19 hours)
Jul-18 @ 18:00 - Jul-19 @ 00:00
Wind Visibility
70° at 5 knots Greater than 6 miles
Clouds
  • Broken at 5,000' AGL
From Jul-19 @ 00:00 - Jul-19 @ 15:00
Wind Visibility
60° at 5 knots Greater than 6 miles
Clouds
  • Scattered at 25,000' AGL
From Jul-19 @ 15:00 - Jul-19 @ 18:00
Wind Visibility
110° at 6 knots Greater than 6 miles
Clouds
  • Few at 5,000' AGL
  • Broken at 25,000' AGL